Time;durP1;ratioP1;P1;durP2;ratioP2;P2;SDS_P1;SDS_P2;PMS_P1;PMS_P2;Temp;Humidity;BMP_temperature;BMP_pressure;BME280_temperature;BME280_humidity;BME280_pressure;Samples;Min_cycle;Max_cycle;Signal;HPM_P1;HPM_P2
2023/05/31 00:01:44;;;;;;;4.93;3.03;;;;;;;15.54;39.47;96490.28;5008707;28;20165;-69
2023/05/31 00:04:09;;;;;;;6.40;3.40;;;;;;;15.41;39.59;96495.50;5008293;28;20183;-71
2023/05/31 00:06:35;;;;;;;7.37;3.13;;;;;;;15.45;39.15;96501.47;5008513;28;20173;-70
2023/05/31 00:09:01;;;;;;;4.90;3.13;;;;;;;15.41;38.82;96495.50;5008269;28;20179;-69
2023/05/31 00:11:26;;;;;;;3.23;2.67;;;;;;;15.41;38.84;96503.44;5008421;28;20434;-69
2023/05/31 00:13:52;;;;;;;6.90;2.73;;;;;;;15.35;38.79;96498.53;5008409;28;20690;-69
2023/05/31 00:16:18;;;;;;;6.50;3.10;;;;;;;15.49;38.43;96500.31;5008557;28;20179;-69
2023/05/31 00:18:44;;;;;;;5.40;2.90;;;;;;;15.45;38.38;96497.03;5008375;28;20773;-70
2023/05/31 00:21:09;;;;;;;4.13;2.90;;;;;;;15.35;38.13;96503.81;5008354;28;20176;-69
2023/05/31 00:23:34;;;;;;;5.10;2.87;;;;;;;15.15;38.46;96501.56;5008271;28;20192;-69
2023/05/31 00:26:00;;;;;;;7.93;2.63;;;;;;;15.19;38.48;96493.34;5008917;28;20204;-67
2023/05/31 00:28:26;;;;;;;6.17;2.27;;;;;;;15.10;38.39;96496.53;5013614;28;20200;-70
2023/05/31 00:30:51;;;;;;;9.00;3.07;;;;;;;15.21;37.97;96501.16;5012721;28;20593;-68
2023/05/31 00:33:17;;;;;;;4.97;3.13;;;;;;;15.22;38.08;96498.44;5013044;28;20172;-69
2023/05/31 00:35:42;;;;;;;4.10;2.50;;;;;;;15.19;38.05;96500.44;5012105;28;20173;-68
2023/05/31 00:38:08;;;;;;;5.00;2.50;;;;;;;15.15;38.26;96498.91;5008750;28;20230;-68
2023/05/31 00:40:33;;;;;;;3.97;2.80;;;;;;;15.03;38.47;96503.13;5008671;28;20192;-68
2023/05/31 00:42:59;;;;;;;5.40;2.77;;;;;;;15.04;38.50;96507.47;5008145;28;20784;-69
2023/05/31 00:45:25;;;;;;;6.70;2.50;;;;;;;15.01;38.48;96505.88;5007205;28;20673;-70
2023/05/31 00:47:50;;;;;;;5.33;2.80;;;;;;;14.89;38.47;96506.59;5007739;28;20196;-70
2023/05/31 00:50:16;;;;;;;6.43;2.70;;;;;;;14.96;38.70;96507.09;5007097;28;20176;-69
2023/05/31 00:52:44;;;;;;;3.20;2.23;;;;;;;14.95;38.67;96516.81;5007681;28;20614;-68
2023/05/31 00:55:10;;;;;;;4.10;2.73;;;;;;;15.02;38.51;96510.22;5007346;28;20990;-70
2023/05/31 00:57:36;;;;;;;3.50;1.97;;;;;;;15.02;38.52;96523.44;5007258;28;20430;-68
2023/05/31 01:00:04;;;;;;;3.83;2.47;;;;;;;14.95;38.60;96518.59;5007485;28;20180;-70
2023/05/31 01:02:32;;;;;;;3.47;2.83;;;;;;;14.85;39.00;96514.81;5007611;28;20411;-68
2023/05/31 01:04:58;;;;;;;4.80;2.70;;;;;;;14.87;38.80;96515.56;5007207;28;20498;-68
2023/05/31 01:07:24;;;;;;;4.27;2.77;;;;;;;14.78;38.91;96509.03;5007291;28;20555;-69
2023/05/31 01:09:50;;;;;;;4.13;2.40;;;;;;;14.55;39.81;96511.22;5007197;28;20199;-69
2023/05/31 01:12:24;;;;;;;6.83;2.83;;;;;;;14.61;39.61;96504.72;5007252;28;20182;-68
2023/05/31 01:15:09;;;;;;;3.83;2.43;;;;;;;14.66;39.58;96504.47;5007029;28;20404;-69
2023/05/31 01:17:37;;;;;;;3.90;2.40;;;;;;;14.63;39.62;96500.22;5007330;28;20470;-70
2023/05/31 01:20:15;;;;;;;3.37;2.67;;;;;;;14.78;39.45;96496.66;5007234;28;20446;-69
2023/05/31 01:22:56;;;;;;;6.73;3.13;;;;;;;14.62;39.73;96501.13;5007281;28;20462;-70
2023/05/31 01:25:40;;;;;;;5.13;3.23;;;;;;;14.59;40.19;96498.69;5006840;28;20471;-70
2023/05/31 01:28:10;;;;;;;3.60;2.73;;;;;;;14.57;39.74;96497.91;5007026;28;20571;-69
2023/05/31 01:30:37;;;;;;;4.73;3.17;;;;;;;14.52;40.20;96500.78;5005830;28;20501;-70
2023/05/31 01:33:07;;;;;;;4.80;2.60;;;;;;;14.34;40.47;96496.59;5006764;28;20535;-69
2023/05/31 01:35:33;;;;;;;4.10;2.80;;;;;;;14.48;40.44;96501.94;5006798;28;20407;-69
2023/05/31 01:37:58;;;;;;;2.93;2.30;;;;;;;14.49;40.27;96493.06;5006700;28;20845;-70
2023/05/31 01:40:24;;;;;;;6.80;2.77;;;;;;;14.31;40.95;96499.41;5006674;28;20168;-69
2023/05/31 01:42:50;;;;;;;4.30;2.90;;;;;;;14.34;41.21;96494.81;5006943;28;20180;-69
2023/05/31 01:45:16;;;;;;;5.00;3.03;;;;;;;14.35;41.02;96488.56;5006132;28;20291;-67
2023/05/31 01:47:42;;;;;;;6.57;3.10;;;;;;;14.31;41.05;96491.47;5006387;28;20577;-69
2023/05/31 01:50:10;;;;;;;3.80;2.67;;;;;;;14.48;40.67;96495.78;5006405;28;20653;-69
2023/05/31 01:52:37;;;;;;;5.50;4.17;;;;;;;14.32;41.34;96499.31;5006499;28;20426;-69
2023/05/31 01:55:03;;;;;;;4.17;2.90;;;;;;;14.24;41.24;96498.03;5006170;28;20971;-70
2023/05/31 01:57:31;;;;;;;4.60;2.67;;;;;;;14.19;41.68;96499.16;5006385;28;20435;-69
2023/05/31 01:59:59;;;;;;;4.57;2.63;;;;;;;14.21;41.92;96495.59;5006524;28;20505;-69
2023/05/31 02:02:26;;;;;;;4.20;2.47;;;;;;;14.09;41.36;96494.50;5006779;28;20839;-70
2023/05/31 02:05:08;;;;;;;6.50;2.63;;;;;;;14.09;41.76;96502.41;5006376;28;20496;-69
2023/05/31 02:07:43;;;;;;;5.07;2.53;;;;;;;14.25;41.75;96505.03;5006520;28;20484;-69
2023/05/31 02:10:10;;;;;;;3.90;2.33;;;;;;;14.11;41.53;96509.31;5006543;28;20427;-70
2023/05/31 02:12:36;;;;;;;5.53;3.03;;;;;;;14.23;41.34;96507.75;5006040;28;20419;-69
2023/05/31 02:15:02;;;;;;;4.80;2.70;;;;;;;14.24;41.03;96506.81;5005920;28;20524;-68
2023/05/31 02:17:28;;;;;;;7.70;2.87;;;;;;;13.99;41.76;96502.06;5006030;28;20646;-69
2023/05/31 02:19:54;;;;;;;6.07;3.27;;;;;;;14.09;41.46;96497.13;5006184;28;20458;-69
2023/05/31 02:22:20;;;;;;;3.87;2.43;;;;;;;14.05;41.58;96508.78;5005757;28;20455;-69
2023/05/31 02:24:46;;;;;;;3.90;2.57;;;;;;;14.18;41.20;96500.09;5005954;28;20693;-69
2023/05/31 02:27:13;;;;;;;9.40;4.13;;;;;;;14.10;41.39;96504.09;5005913;28;20528;-69
2023/05/31 02:29:38;;;;;;;5.73;3.10;;;;;;;13.94;41.87;96497.06;5005779;28;20648;-68
2023/05/31 02:32:04;;;;;;;5.77;5.20;;;;;;;13.92;41.37;96500.72;5005712;28;20407;-69
2023/05/31 02:34:30;;;;;;;3.80;3.30;;;;;;;14.05;42.00;96500.88;5005365;28;20180;-69
2023/05/31 02:36:56;;;;;;;4.70;2.83;;;;;;;13.96;41.41;96500.47;5005716;28;20570;-69
2023/05/31 02:39:21;;;;;;;6.60;3.10;;;;;;;13.85;42.37;96491.44;5005836;28;20689;-69
2023/05/31 02:41:47;;;;;;;7.80;2.90;;;;;;;13.85;42.42;96497.56;5005590;28;20187;-69
2023/05/31 02:44:13;;;;;;;4.43;2.60;;;;;;;13.77;42.06;96495.34;5005098;28;20176;-69
2023/05/31 02:46:39;;;;;;;3.30;2.47;;;;;;;13.95;42.44;96495.25;5005520;28;20196;-69
2023/05/31 02:49:06;;;;;;;4.13;2.80;;;;;;;13.96;42.11;96494.31;5005719;28;20525;-69
2023/05/31 02:51:32;;;;;;;7.27;3.50;;;;;;;13.84;42.42;96495.00;5005749;28;20423;-69
2023/05/31 02:53:57;;;;;;;7.80;2.73;;;;;;;13.94;41.80;96485.66;5005245;28;20415;-69
2023/05/31 02:56:23;;;;;;;3.77;2.40;;;;;;;13.79;42.71;96482.06;5005550;28;20184;-69
2023/05/31 02:58:48;;;;;;;3.57;2.83;;;;;;;13.72;43.05;96500.03;5005897;28;20196;-70
2023/05/31 03:01:14;;;;;;;8.03;2.87;;;;;;;13.82;42.55;96492.47;5005959;28;20703;-69
2023/05/31 03:03:40;;;;;;;4.13;2.47;;;;;;;13.92;42.28;96498.91;5005621;28;20180;-70
2023/05/31 03:06:06;;;;;;;9.73;3.30;;;;;;;13.68;42.89;96493.22;5005806;28;20461;-69
2023/05/31 03:08:31;;;;;;;6.83;2.70;;;;;;;13.85;42.79;96499.34;5005689;28;20670;-69
2023/05/31 03:10:57;;;;;;;9.80;3.20;;;;;;;13.95;42.24;96500.53;5005716;28;20188;-68
2023/05/31 03:13:22;;;;;;;9.73;2.80;;;;;;;13.80;42.75;96498.75;5005764;28;20175;-69
2023/05/31 03:15:48;;;;;;;6.67;3.27;;;;;;;13.90;42.31;96487.59;5009551;28;20195;-69
2023/05/31 03:18:13;;;;;;;25.43;5.40;;;;;;;13.92;42.75;96490.16;5017410;28;20744;-70
2023/05/31 03:20:39;;;;;;;4.37;2.80;;;;;;;13.72;43.50;96504.44;5020985;28;20184;-69
2023/05/31 03:23:05;;;;;;;14.77;3.30;;;;;;;13.73;43.22;96499.09;5016347;28;20184;-69
2023/05/31 03:25:30;;;;;;;9.83;3.20;;;;;;;13.83;42.96;96493.31;5010951;28;20219;-68
2023/05/31 03:27:57;;;;;;;10.10;3.67;;;;;;;13.72;43.17;96489.50;5009286;28;20473;-67
2023/05/31 03:30:22;;;;;;;11.23;3.60;;;;;;;13.74;43.49;96497.28;5009052;28;20183;-70
2023/05/31 03:32:48;;;;;;;8.63;3.43;;;;;;;13.65;43.64;96503.06;5009407;28;20419;-69
2023/05/31 03:35:13;;;;;;;5.93;3.07;;;;;;;13.62;43.62;96493.53;5008840;28;20581;-67
2023/05/31 03:37:39;;;;;;;11.03;3.77;;;;;;;13.75;43.37;96485.84;5009019;28;20200;-68
2023/05/31 03:40:05;;;;;;;9.63;3.13;;;;;;;13.80;43.75;96494.34;5009000;28;20176;-69
2023/05/31 03:42:31;;;;;;;5.03;2.97;;;;;;;14.01;42.83;96487.00;5009127;28;20183;-70
2023/05/31 03:44:56;;;;;;;5.97;2.50;;;;;;;13.83;43.77;96482.75;5008671;28;20508;-69
2023/05/31 03:47:22;;;;;;;3.83;2.90;;;;;;;13.97;43.21;96482.84;5008964;28;21177;-69
2023/05/31 03:49:47;;;;;;;7.10;2.83;;;;;;;14.18;42.12;96483.41;5008822;28;20199;-68
2023/05/31 03:52:13;;;;;;;8.67;3.00;;;;;;;13.88;43.47;96486.00;5009018;28;20225;-70
2023/05/31 03:54:39;;;;;;;3.70;2.50;;;;;;;13.99;42.75;96483.59;5008476;28;20203;-69
2023/05/31 03:57:05;;;;;;;3.73;3.00;;;;;;;14.26;42.14;96482.97;5008521;28;20223;-69
2023/05/31 03:59:31;;;;;;;9.13;2.90;;;;;;;14.09;42.35;96484.78;5008644;28;20422;-70
2023/05/31 04:01:56;;;;;;;4.53;3.40;;;;;;;14.40;41.92;96485.66;5008947;28;20407;-70
2023/05/31 04:04:21;;;;;;;6.17;3.33;;;;;;;14.32;42.18;96486.13;5008137;28;20176;-68
2023/05/31 04:06:47;;;;;;;4.90;2.57;;;;;;;14.53;41.75;96493.75;5008410;28;20196;-69
2023/05/31 04:09:12;;;;;;;5.30;2.60;;;;;;;14.60;41.81;96492.47;5008739;28;20298;-69
2023/05/31 04:11:38;;;;;;;19.67;4.70;;;;;;;14.67;41.82;96498.22;5008612;28;20276;-69
2023/05/31 04:14:03;;;;;;;10.13;3.33;;;;;;;14.71;41.62;96497.13;5008522;28;20289;-69
2023/05/31 04:16:28;;;;;;;6.50;3.17;;;;;;;14.71;41.45;96491.84;5008697;28;20520;-69
2023/05/31 04:18:54;;;;;;;6.07;3.30;;;;;;;14.74;41.63;96500.44;4997113;28;20184;-69
2023/05/31 04:21:20;;;;;;;8.60;3.40;;;;;;;14.41;42.06;96500.59;5009816;28;20653;-69
2023/05/31 04:23:46;;;;;;;9.13;2.90;;;;;;;14.73;41.83;96501.38;5007428;28;20188;-69
2023/05/31 04:26:16;;;;;;;9.73;2.50;;;;;;;15.20;40.43;96494.19;5006506;28;21183;-69
2023/05/31 04:28:42;;;;;;;15.57;2.90;;;;;;;15.37;40.19;96496.63;5007874;28;20191;-69
2023/05/31 04:31:08;;;;;;;4.40;3.07;;;;;;;15.43;40.00;96500.72;5007379;28;21144;-69
2023/05/31 04:33:35;;;;;;;8.60;3.63;;;;;;;15.48;40.04;96503.09;5007542;28;20443;-69
2023/05/31 04:36:03;;;;;;;10.90;3.67;;;;;;;15.65;39.62;96494.94;5007558;28;21078;-69
2023/05/31 04:38:29;;;;;;;3.20;2.80;;;;;;;15.50;39.82;96501.19;5007425;28;20438;-69
2023/05/31 04:40:57;;;;;;;4.23;2.40;;;;;;;15.12;40.50;96494.66;5007332;28;20446;-68
2023/05/31 04:43:23;;;;;;;5.27;2.70;;;;;;;14.99;41.23;96504.25;5006752;28;20458;-70
2023/05/31 04:45:49;;;;;;;6.40;2.50;;;;;;;15.15;40.52;96501.56;5007551;28;20463;-69
2023/05/31 04:48:16;;;;;;;8.83;3.60;;;;;;;15.55;39.74;96499.94;5006726;28;20493;-70
2023/05/31 04:50:42;;;;;;;7.13;3.27;;;;;;;15.44;40.18;96508.53;5005390;28;20176;-69
2023/05/31 04:53:07;;;;;;;14.33;3.47;;;;;;;15.66;39.84;96501.91;5005093;28;20888;-69
2023/05/31 04:55:33;;;;;;;3.40;2.40;;;;;;;15.26;40.57;96509.69;5004895;28;20176;-70
2023/05/31 04:57:58;;;;;;;7.40;3.10;;;;;;;15.08;41.53;96503.72;5004843;28;20676;-72
2023/05/31 05:00:24;;;;;;;6.73;2.70;;;;;;;15.20;40.93;96505.59;5004935;28;20282;-74
2023/05/31 05:02:49;;;;;;;3.33;2.70;;;;;;;15.36;40.58;96508.19;5004887;28;20587;-71
2023/05/31 05:05:15;;;;;;;3.10;2.33;;;;;;;15.22;40.95;96508.16;5004763;28;20223;-71
2023/05/31 05:07:41;;;;;;;4.03;2.70;;;;;;;15.39;40.61;96515.06;5004444;28;20200;-71
2023/05/31 05:10:07;;;;;;;3.67;2.50;;;;;;;15.51;40.40;96513.47;5004551;28;20427;-73
2023/05/31 05:12:32;;;;;;;6.20;2.67;;;;;;;15.44;40.50;96523.56;5004515;28;20207;-70
2023/05/31 05:14:57;;;;;;;8.37;3.20;;;;;;;14.92;41.95;96519.63;5004563;28;20267;-69
2023/05/31 05:17:23;;;;;;;4.93;3.13;;;;;;;15.16;41.76;96527.03;5005132;28;20661;-71
2023/05/31 05:19:48;;;;;;;3.73;2.53;;;;;;;15.46;41.12;96533.09;5004747;28;20304;-71
2023/05/31 05:22:14;;;;;;;5.23;2.77;;;;;;;15.30;41.16;96524.41;5003762;28;20534;-69
2023/05/31 05:24:39;;;;;;;9.27;2.80;;;;;;;15.67;40.62;96522.16;5003753;28;20656;-73
2023/05/31 05:27:06;;;;;;;11.33;3.40;;;;;;;15.91;39.93;96517.13;5004513;28;20410;-71
2023/05/31 05:29:31;;;;;;;4.67;2.53;;;;;;;15.99;39.86;96514.00;5004185;28;20172;-71
2023/05/31 05:31:56;;;;;;;4.93;2.97;;;;;;;15.78;40.81;96518.84;5004226;28;20480;-70
2023/05/31 05:34:22;;;;;;;5.07;3.03;;;;;;;15.91;40.42;96524.22;5004199;28;20334;-72
2023/05/31 05:36:47;;;;;;;4.47;2.87;;;;;;;15.48;41.21;96514.50;5004319;28;20782;-71
2023/05/31 05:39:13;;;;;;;8.97;3.10;;;;;;;15.98;40.30;96514.97;5003953;28;20245;-72
2023/05/31 05:41:39;;;;;;;7.83;3.10;;;;;;;15.83;40.86;96524.72;5003840;28;20188;-76
2023/05/31 05:44:04;;;;;;;3.90;2.20;;;;;;;16.02;40.87;96525.25;5003796;28;20306;-71
2023/05/31 05:46:29;;;;;;;4.63;3.13;;;;;;;16.21;40.22;96516.97;5004061;28;20910;-72
2023/05/31 05:48:56;;;;;;;5.83;2.93;;;;;;;16.23;40.18;96519.53;5004244;28;20172;-70
2023/05/31 05:51:22;;;;;;;6.67;3.47;;;;;;;16.25;40.45;96523.78;5003865;28;20275;-70
2023/05/31 05:53:47;;;;;;;6.20;3.13;;;;;;;16.68;40.17;96520.97;5003622;28;20419;-73
2023/05/31 05:56:18;;;;;;;6.07;2.70;;;;;;;16.51;40.06;96524.75;5003703;28;20422;-72
2023/05/31 05:58:46;;;;;;;7.03;2.70;;;;;;;16.42;40.39;96521.84;5003911;28;20213;-71
2023/05/31 06:01:12;;;;;;;4.00;3.00;;;;;;;16.48;40.32;96519.63;5003835;28;20415;-71
2023/05/31 06:03:39;;;;;;;7.50;3.30;;;;;;;16.54;40.39;96526.31;5003847;28;20435;-72
2023/05/31 06:06:04;;;;;;;7.00;3.27;;;;;;;16.42;40.83;96525.34;5003862;28;20533;-73
2023/05/31 06:08:30;;;;;;;5.03;2.90;;;;;;;16.87;39.92;96519.78;5003994;28;20880;-72
2023/05/31 06:10:55;;;;;;;7.43;3.37;;;;;;;17.36;39.25;96519.06;5005396;28;20249;-72
2023/05/31 06:13:20;;;;;;;6.50;3.50;;;;;;;17.26;39.31;96515.34;5024320;28;20179;-77
2023/05/31 06:15:46;;;;;;;9.23;3.33;;;;;;;17.52;38.76;96516.19;5019583;28;20251;-74
2023/05/31 06:18:11;;;;;;;3.73;2.47;;;;;;;17.29;39.20;96523.09;5014919;28;20193;-70
2023/05/31 06:20:37;;;;;;;7.17;3.07;;;;;;;17.51;39.29;96525.97;5012184;28;20187;-72
2023/05/31 06:23:02;;;;;;;5.17;3.27;;;;;;;17.09;40.07;96522.66;5009687;28;20180;-71
2023/05/31 06:25:28;;;;;;;8.87;3.50;;;;;;;17.44;39.35;96519.41;5006550;28;20200;-70
2023/05/31 06:27:56;;;;;;;4.80;3.40;;;;;;;16.78;40.66;96533.59;5006689;28;20569;-72
2023/05/31 06:30:22;;;;;;;7.63;3.20;;;;;;;17.08;40.65;96534.22;5006345;28;20204;-70
2023/05/31 06:32:48;;;;;;;5.83;3.27;;;;;;;17.55;39.53;96530.13;5006507;28;20533;-71
2023/05/31 06:35:13;;;;;;;6.90;3.17;;;;;;;17.37;39.50;96534.03;5006194;28;20172;-72
2023/05/31 06:37:39;;;;;;;5.77;3.00;;;;;;;17.43;39.43;96530.94;5004107;28;20264;-71
2023/05/31 06:40:06;;;;;;;5.43;3.07;;;;;;;17.45;39.76;96523.72;5005813;28;20219;-69
2023/05/31 06:42:32;;;;;;;4.30;3.03;;;;;;;17.22;40.16;96527.13;5005649;28;20200;-73
2023/05/31 06:44:57;;;;;;;4.60;3.10;;;;;;;16.96;40.35;96539.50;5005745;28;20458;-73
2023/05/31 06:47:23;;;;;;;6.93;2.80;;;;;;;17.09;40.29;96520.00;5005348;28;20203;-72
2023/05/31 06:49:49;;;;;;;6.73;2.97;;;;;;;17.20;39.99;96534.34;5005459;28;20303;-71
2023/05/31 06:52:14;;;;;;;7.10;3.00;;;;;;;17.63;39.55;96515.47;5005514;28;20559;-70
2023/05/31 06:54:42;;;;;;;5.20;2.87;;;;;;;17.56;39.27;96521.19;4999772;28;21106;-73
2023/05/31 06:57:08;;;;;;;7.40;4.30;;;;;;;17.43;39.80;96517.69;5004083;28;20207;-69
2023/05/31 06:59:33;;;;;;;4.40;2.80;;;;;;;17.48;40.50;96512.94;4996132;28;20920;-71
2023/05/31 07:01:59;;;;;;;7.00;3.00;;;;;;;17.45;39.41;96521.06;4997480;28;20230;-70
2023/05/31 07:04:24;;;;;;;5.60;3.13;;;;;;;17.54;40.05;96514.28;5005464;28;20180;-70
2023/05/31 07:06:50;;;;;;;4.90;3.77;;;;;;;17.92;39.40;96516.91;5003470;28;20222;-71
2023/05/31 07:09:16;;;;;;;9.30;3.50;;;;;;;18.21;38.49;96519.28;5005669;28;20188;-71
2023/05/31 07:11:42;;;;;;;6.20;3.23;;;;;;;18.32;38.48;96513.19;5005753;28;20559;-70
2023/05/31 07:14:09;;;;;;;4.57;3.43;;;;;;;18.31;38.36;96519.47;5005726;28;20218;-72
2023/05/31 07:16:35;;;;;;;6.67;3.60;;;;;;;18.13;38.19;96508.38;5006690;28;20466;-71
2023/05/31 07:19:01;;;;;;;5.97;3.50;;;;;;;18.38;38.04;96510.94;5006539;28;20403;-72
2023/05/31 07:21:26;;;;;;;7.97;3.50;;;;;;;18.46;38.36;96505.06;5007070;28;20172;-72
2023/05/31 07:23:52;;;;;;;8.20;3.73;;;;;;;19.10;37.24;96504.72;5006572;28;20423;-73
2023/05/31 07:26:17;;;;;;;7.40;3.93;;;;;;;19.25;36.91;96500.88;5006856;28;20208;-72
2023/05/31 07:28:44;;;;;;;5.23;2.90;;;;;;;19.04;36.42;96500.72;5007243;28;20239;-73
2023/05/31 07:31:10;;;;;;;6.40;3.43;;;;;;;19.06;36.57;96495.25;5007863;28;20527;-71
2023/05/31 07:33:35;;;;;;;5.43;2.80;;;;;;;18.98;37.08;96497.66;5011318;28;20481;-72
2023/05/31 07:36:01;;;;;;;4.70;3.00;;;;;;;19.12;37.01;96499.28;4998397;28;20235;-73
2023/05/31 07:38:27;;;;;;;10.30;3.53;;;;;;;19.11;36.72;96503.75;5000866;28;20287;-73
2023/05/31 07:40:53;;;;;;;6.37;3.30;;;;;;;19.52;36.19;96502.34;5005375;28;20586;-75
2023/05/31 07:43:21;;;;;;;10.90;3.20;;;;;;;19.04;36.47;96490.06;5005873;28;20431;-72
2023/05/31 07:45:48;;;;;;;7.03;3.47;;;;;;;18.70;37.15;96497.06;5005271;28;20389;-73
2023/05/31 07:48:13;;;;;;;6.27;3.10;;;;;;;19.22;36.41;96500.25;5005173;28;20486;-72
2023/05/31 07:50:38;;;;;;;7.50;3.40;;;;;;;19.23;35.64;96494.00;5005309;28;20410;-71
2023/05/31 07:53:04;;;;;;;4.67;2.97;;;;;;;19.42;35.74;96493.41;5005265;28;20183;-70
2023/05/31 07:55:30;;;;;;;11.27;3.63;;;;;;;19.36;35.78;96499.19;4995181;28;20184;-72
2023/05/31 07:57:55;;;;;;;11.87;3.63;;;;;;;19.65;35.67;96494.25;5005098;28;20196;-72
2023/05/31 08:00:21;;;;;;;9.23;3.90;;;;;;;19.71;35.79;96493.81;5002451;28;20307;-73
2023/05/31 08:02:46;;;;;;;4.90;3.30;;;;;;;19.79;34.66;96490.53;5006253;28;20635;-71
2023/05/31 08:05:12;;;;;;;7.23;3.10;;;;;;;19.48;35.52;96502.72;5007585;28;20617;-68
2023/05/31 08:07:38;;;;;;;5.03;3.43;;;;;;;19.67;35.51;96493.16;5007984;28;20200;-70
2023/05/31 08:10:04;;;;;;;5.07;3.00;;;;;;;19.80;35.09;96481.59;5007970;28;20407;-69
2023/05/31 08:12:30;;;;;;;6.33;4.47;;;;;;;19.48;35.30;96486.75;5008156;28;20258;-68
2023/05/31 08:14:56;;;;;;;5.77;2.93;;;;;;;20.19;34.67;96482.84;5008003;28;20422;-70
2023/05/31 08:17:21;;;;;;;4.80;3.07;;;;;;;20.35;33.77;96481.59;5007849;28;20740;-68
2023/05/31 08:19:47;;;;;;;9.90;3.30;;;;;;;20.30;34.11;96489.97;5008032;28;20215;-70
2023/05/31 08:22:12;;;;;;;5.10;3.40;;;;;;;20.06;33.93;96487.50;5007671;28;20215;-70
2023/05/31 08:24:37;;;;;;;6.50;3.27;;;;;;;20.34;33.82;96488.75;5007254;28;20192;-70
2023/05/31 08:27:03;;;;;;;6.30;3.30;;;;;;;20.36;33.86;96488.63;5007696;28;20192;-70
2023/05/31 08:29:29;;;;;;;7.33;3.60;;;;;;;20.27;33.73;96487.56;5007894;28;20577;-70
2023/05/31 08:31:55;;;;;;;4.50;3.17;;;;;;;20.65;33.86;96486.25;5007645;28;20235;-69
2023/05/31 08:34:20;;;;;;;6.47;3.63;;;;;;;20.53;33.57;96466.75;5007708;28;20649;-69
2023/05/31 08:36:47;;;;;;;8.33;3.30;;;;;;;20.28;34.27;96491.91;5007922;28;20438;-74
2023/05/31 08:39:12;;;;;;;4.53;3.43;;;;;;;20.38;34.17;96479.50;5007963;28;20179;-72
2023/05/31 08:42:03;;;;;;;7.90;2.90;;;;;;;20.43;34.22;96479.13;5007800;28;20415;-73
2023/05/31 08:44:29;;;;;;;8.80;3.80;;;;;;;20.46;34.68;96474.41;5007480;28;20638;-70
2023/05/31 08:47:07;;;;;;;5.90;4.10;;;;;;;20.55;33.71;96474.63;5007535;28;20435;-68
2023/05/31 08:49:34;;;;;;;11.03;4.40;;;;;;;20.45;34.19;96467.38;5007829;28;20413;-71
2023/05/31 08:52:00;;;;;;;9.60;3.97;;;;;;;20.69;34.47;96471.69;5007751;28;20404;-71
2023/05/31 08:54:26;;;;;;;8.23;3.00;;;;;;;20.78;33.67;96468.25;5007491;28;20495;-70
2023/05/31 08:56:52;;;;;;;5.60;3.40;;;;;;;21.00;33.18;96461.97;5007888;28;20219;-70
2023/05/31 08:59:19;;;;;;;7.40;3.77;;;;;;;21.04;33.15;96465.19;5007763;28;20411;-70
2023/05/31 09:01:47;;;;;;;5.50;3.10;;;;;;;20.75;33.30;96463.19;5007872;28;20434;-69
2023/05/31 09:04:14;;;;;;;8.07;3.63;;;;;;;20.67;32.99;96468.28;5007067;28;20420;-68
2023/05/31 09:06:39;;;;;;;10.80;3.33;;;;;;;20.58;33.42;96464.59;5007069;28;21070;-70
2023/05/31 09:09:08;;;;;;;8.43;3.40;;;;;;;20.63;33.28;96462.38;5007190;28;20410;-69
2023/05/31 09:11:37;;;;;;;7.20;3.57;;;;;;;21.19;33.35;96471.91;5006560;28;20214;-70
2023/05/31 09:14:03;;;;;;;5.10;3.73;;;;;;;21.03;32.96;96461.69;5006797;28;20403;-70
2023/05/31 09:16:29;;;;;;;8.27;3.50;;;;;;;21.19;33.49;96466.56;5006959;28;20411;-67
2023/05/31 09:19:02;;;;;;;5.03;3.23;;;;;;;21.19;32.85;96461.25;5006859;28;20418;-68
2023/05/31 09:21:28;;;;;;;8.43;3.40;;;;;;;21.30;33.06;96458.47;5007197;28;20633;-68
2023/05/31 09:23:58;;;;;;;10.90;4.40;;;;;;;21.34;32.97;96459.91;5006184;28;20438;-68
2023/05/31 09:26:23;;;;;;;15.43;4.30;;;;;;;21.44;32.73;96475.16;5006605;28;20211;-70
2023/05/31 09:28:53;;;;;;;8.00;6.03;;;;;;;21.44;32.55;96451.97;5006856;28;20477;-70
2023/05/31 09:31:19;;;;;;;4.80;3.53;;;;;;;21.43;32.39;96457.47;5006877;28;20234;-68
2023/05/31 09:33:50;;;;;;;5.20;3.30;;;;;;;20.86;33.57;96455.13;5006537;28;20440;-69
2023/05/31 09:36:27;;;;;;;7.00;4.40;;;;;;;21.32;33.61;96456.50;5006857;28;20407;-71
2023/05/31 09:39:00;;;;;;;4.40;2.97;;;;;;;21.57;33.21;96449.09;5006216;28;20550;-68
2023/05/31 09:41:27;;;;;;;4.87;2.80;;;;;;;21.51;32.67;96449.63;4999528;28;21093;-70
2023/05/31 09:43:53;;;;;;;6.23;4.67;;;;;;;21.55;32.37;96446.56;5004887;28;20422;-69
2023/05/31 09:46:22;;;;;;;6.27;3.70;;;;;;;21.31;32.81;96462.84;5007593;28;20455;-68
2023/05/31 09:49:03;;;;;;;7.20;3.10;;;;;;;21.45;32.14;96451.00;5007774;28;20278;-69
2023/05/31 09:51:29;;;;;;;7.73;3.60;;;;;;;21.64;32.52;96444.91;5006878;28;20403;-70
2023/05/31 09:53:55;;;;;;;3.70;3.20;;;;;;;21.61;32.59;96442.47;5006795;28;20403;-69
2023/05/31 09:56:23;;;;;;;9.73;3.87;;;;;;;21.65;32.32;96451.94;5007519;28;20411;-70
2023/05/31 09:58:50;;;;;;;13.27;4.40;;;;;;;21.92;32.06;96424.63;5007018;28;20497;-70
2023/05/31 10:01:16;;;;;;;8.23;3.40;;;;;;;21.74;31.17;96442.28;5007063;28;20413;-70
2023/05/31 10:03:43;;;;;;;5.63;3.40;;;;;;;21.72;31.40;96438.88;5006811;28;20475;-69
2023/05/31 10:06:10;;;;;;;9.00;4.00;;;;;;;21.69;31.98;96434.66;5006992;28;20207;-70
2023/05/31 10:08:36;;;;;;;13.90;4.43;;;;;;;21.61;32.27;96439.81;5007267;28;20434;-68
2023/05/31 10:11:02;;;;;;;19.23;6.50;;;;;;;21.68;32.53;96435.63;5006829;28;20411;-68
2023/05/31 10:13:28;;;;;;;8.40;3.30;;;;;;;21.64;31.70;96446.72;5006844;28;20465;-69
2023/05/31 10:15:56;;;;;;;7.33;4.33;;;;;;;21.49;31.72;96430.22;5007066;28;20180;-70
2023/05/31 10:18:27;;;;;;;6.97;3.70;;;;;;;21.75;31.52;96436.78;5006984;28;20423;-70
2023/05/31 10:20:58;;;;;;;9.30;4.30;;;;;;;21.88;31.87;96441.06;5007236;28;20411;-70
2023/05/31 10:23:25;;;;;;;8.53;3.90;;;;;;;21.94;30.52;96445.84;5005770;28;20443;-70
2023/05/31 10:26:13;;;;;;;6.00;3.33;;;;;;;22.13;31.64;96443.19;5006582;28;20521;-69
2023/05/31 10:28:59;;;;;;;9.43;4.40;;;;;;;22.17;31.38;96433.09;5006719;28;21111;-70
2023/05/31 10:31:33;;;;;;;6.13;3.70;;;;;;;21.99;31.61;96440.91;5006901;28;20445;-69
2023/05/31 10:34:21;;;;;;;5.53;4.00;;;;;;;21.76;32.06;96440.31;5006493;28;20903;-68
2023/05/31 10:36:46;;;;;;;6.47;3.40;;;;;;;21.99;31.09;96422.22;5006799;28;21018;-68
2023/05/31 10:39:38;;;;;;;7.63;3.40;;;;;;;21.86;31.09;96432.31;5006366;28;20426;-71
2023/05/31 10:42:07;;;;;;;6.80;3.47;;;;;;;22.12;31.28;96425.47;5007274;28;20407;-69
2023/05/31 10:45:09;;;;;;;5.03;3.63;;;;;;;22.34;31.46;96426.25;5006731;28;20415;-69
2023/05/31 10:48:14;;;;;;;9.17;3.67;;;;;;;21.63;31.40;96421.00;5006443;28;20818;-69
2023/05/31 10:50:55;;;;;;;6.30;3.27;;;;;;;21.83;31.01;96420.09;5005911;28;20434;-69
2023/05/31 10:53:22;;;;;;;16.60;3.93;;;;;;;21.74;31.14;96427.09;5006509;28;20514;-70
2023/05/31 10:55:49;;;;;;;5.07;3.50;;;;;;;21.53;31.68;96412.94;5006773;28;20407;-70
2023/05/31 10:58:36;;;;;;;26.97;4.87;;;;;;;21.83;30.82;96404.06;5005892;28;20776;-70
2023/05/31 11:01:07;;;;;;;7.90;4.13;;;;;;;22.12;31.41;96400.59;5005719;28;20431;-69
2023/05/31 11:03:42;;;;;;;6.90;3.33;;;;;;;22.05;31.01;96415.50;5005655;28;20414;-71
2023/05/31 11:06:11;;;;;;;8.10;3.73;;;;;;;21.98;31.44;96399.16;5005750;28;20454;-70
2023/05/31 11:08:37;;;;;;;9.20;4.67;;;;;;;22.01;31.08;96390.84;5005931;28;20459;-71
2023/05/31 11:11:44;;;;;;;5.27;3.00;;;;;;;21.91;30.16;96422.06;5005814;28;20446;-70
2023/05/31 11:14:16;;;;;;;9.53;3.60;;;;;;;22.25;31.23;96413.72;5001043;28;20191;-71
2023/05/31 11:16:45;;;;;;;7.20;3.40;;;;;;;21.96;30.80;96401.97;4997080;28;20518;-69
2023/05/31 11:19:16;;;;;;;13.93;4.47;;;;;;;22.04;30.60;96417.31;5005626;28;20418;-70
2023/05/31 11:21:52;;;;;;;7.20;3.40;;;;;;;21.82;30.75;96415.72;5004974;28;20799;-71
2023/05/31 11:24:39;;;;;;;4.53;2.87;;;;;;;21.83;30.17;96413.88;5000419;28;20797;-71
2023/05/31 11:27:10;;;;;;;6.03;3.20;;;;;;;21.77;30.76;96412.59;5004375;28;20530;-72
2023/05/31 11:29:44;;;;;;;5.40;3.57;;;;;;;21.89;30.63;96405.31;5005988;28;20434;-71
2023/05/31 11:32:10;;;;;;;8.87;3.13;;;;;;;22.10;30.21;96402.56;5004311;28;20514;-69
2023/05/31 11:35:00;;;;;;;5.03;3.47;;;;;;;22.11;30.34;96401.56;4997816;28;20419;-71